Time;durP1;ratioP1;P1;durP2;ratioP2;P2;SDS_P1;SDS_P2;PMS_P1;PMS_P2;Temp;Humidity;BMP_temperature;BMP_pressure;BME280_temperature;BME280_humidity;BME280_pressure;Samples;Min_cycle;Max_cycle;Signal;HPM_P1;HPM_P2
2022/12/11 00:02:05;;;;;;;53.17;27.65;;;;;;;3.07;100.00;101182.59;4100440;23;21966;-58
2022/12/11 00:04:30;;;;;;;56.78;28.15;;;;;;;3.05;100.00;101184.31;4980906;28;20080;-63
2022/12/11 00:06:56;;;;;;;52.42;29.20;;;;;;;3.09;100.00;101184.34;4969807;28;20456;-62
2022/12/11 00:09:21;;;;;;;55.03;28.85;;;;;;;3.16;100.00;101174.78;4970051;28;20497;-63
2022/12/11 00:11:47;;;;;;;53.08;26.63;;;;;;;3.16;100.00;101177.38;4970059;28;20023;-62
2022/12/11 00:14:13;;;;;;;51.47;28.67;;;;;;;3.06;100.00;101176.50;4970776;28;20031;-60
2022/12/11 00:16:39;;;;;;;49.03;27.67;;;;;;;3.09;100.00;101170.44;4973442;28;20428;-63
2022/12/11 00:19:04;;;;;;;52.60;27.38;;;;;;;3.19;100.00;101174.78;4988897;28;20031;-63
2022/12/11 00:21:30;;;;;;;47.05;26.48;;;;;;;3.20;100.00;101170.47;4990811;28;20030;-64
2022/12/11 00:23:55;;;;;;;46.83;27.88;;;;;;;3.22;100.00;101171.34;4989329;28;20018;-63
2022/12/11 00:26:21;;;;;;;50.20;26.67;;;;;;;3.22;100.00;101172.19;4988572;28;20022;-64
2022/12/11 00:28:46;;;;;;;51.30;27.50;;;;;;;3.23;100.00;101171.34;4989855;28;20017;-59
2022/12/11 00:31:15;;;;;;;46.13;27.23;;;;;;;3.19;100.00;101169.59;4989527;28;20037;-65
2022/12/11 00:33:41;;;;;;;44.10;26.48;;;;;;;3.22;100.00;101174.81;4988349;28;20030;-64
2022/12/11 00:36:15;;;;;;;46.83;26.88;;;;;;;3.19;100.00;101169.59;4989177;28;20014;-62
2022/12/11 00:38:40;;;;;;;46.35;25.88;;;;;;;3.22;100.00;101166.13;4987897;28;20073;-62
2022/12/11 00:41:05;;;;;;;47.85;27.42;;;;;;;3.22;100.00;101169.59;4987796;28;20132;-61
2022/12/11 00:43:31;;;;;;;47.55;26.08;;;;;;;3.25;100.00;101169.59;4988809;28;20034;-63
2022/12/11 00:45:56;;;;;;;48.85;26.63;;;;;;;3.29;100.00;101168.72;4989093;28;20030;-60
2022/12/11 00:48:21;;;;;;;44.40;25.83;;;;;;;3.28;100.00;101167.00;4988357;28;20113;-63
2022/12/11 00:50:47;;;;;;;45.30;26.50;;;;;;;3.27;100.00;101167.88;4987743;28;20053;-63
2022/12/11 00:53:12;;;;;;;44.47;26.23;;;;;;;3.32;100.00;101167.91;4988604;28;20053;-63
2022/12/11 00:55:39;;;;;;;40.90;25.23;;;;;;;3.33;100.00;101172.22;4988809;28;20469;-58
2022/12/11 00:58:04;;;;;;;48.65;26.08;;;;;;;3.24;100.00;101170.47;5003331;28;20026;-56
2022/12/11 01:00:30;;;;;;;46.22;25.13;;;;;;;3.34;100.00;101167.91;5008322;28;20041;-59
2022/12/11 01:02:55;;;;;;;44.33;24.98;;;;;;;3.28;100.00;101167.00;5022005;28;20049;-63
2022/12/11 01:05:21;;;;;;;41.38;26.33;;;;;;;3.21;100.00;101165.25;5047838;28;20130;-62
2022/12/11 01:07:46;;;;;;;42.90;25.25;;;;;;;3.25;100.00;101168.75;5052369;28;20056;-63
2022/12/11 01:10:24;;;;;;;43.88;24.88;;;;;;;3.25;100.00;101171.34;5051975;28;20027;-60
2022/12/11 01:12:58;;;;;;;43.05;24.35;;;;;;;3.23;100.00;101163.53;5052285;28;20124;-63
2022/12/11 01:15:33;;;;;;;39.05;23.85;;;;;;;3.18;100.00;101169.56;5051818;28;20033;-62
2022/12/11 01:17:58;;;;;;;37.13;23.42;;;;;;;3.27;100.00;101164.41;5050118;28;20108;-61
2022/12/11 01:20:25;;;;;;;38.60;24.35;;;;;;;3.28;100.00;101164.41;5051537;28;20117;-63
2022/12/11 01:22:52;;;;;;;39.85;23.20;;;;;;;3.26;100.00;101163.53;5052237;28;20123;-60
2022/12/11 01:25:17;;;;;;;41.35;22.98;;;;;;;3.25;100.00;101160.94;5042172;28;20104;-63
2022/12/11 01:27:43;;;;;;;37.95;23.27;;;;;;;3.28;100.00;101167.00;5031411;28;20068;-59
2022/12/11 01:30:08;;;;;;;44.00;23.48;;;;;;;3.23;100.00;101178.28;5031113;28;20040;-63
2022/12/11 01:32:34;;;;;;;42.05;24.00;;;;;;;3.28;100.00;101169.63;5031364;28;20080;-60
2022/12/11 01:35:03;;;;;;;42.22;24.35;;;;;;;3.26;100.00;101173.97;5030402;28;20033;-59
2022/12/11 01:37:29;;;;;;;40.42;23.92;;;;;;;3.22;100.00;101171.34;5031811;28;20052;-65
2022/12/11 01:39:55;;;;;;;42.67;24.35;;;;;;;3.18;100.00;101169.56;5031904;28;20025;-65
2022/12/11 01:42:20;;;;;;;42.97;24.75;;;;;;;3.22;100.00;101167.00;5030330;28;20028;-61
2022/12/11 01:44:45;;;;;;;39.13;22.42;;;;;;;3.08;100.00;101174.78;5030872;28;20021;-63
2022/12/11 01:47:11;;;;;;;32.90;20.40;;;;;;;3.18;100.00;101175.66;5018701;28;20038;-63
2022/12/11 01:49:38;;;;;;;35.25;21.23;;;;;;;3.17;100.00;101171.34;5010734;28;20113;-58
2022/12/11 01:52:14;;;;;;;32.78;20.23;;;;;;;3.08;100.00;101171.31;5012397;28;20036;-60
2022/12/11 01:54:40;;;;;;;30.73;19.20;;;;;;;3.14;100.00;101169.59;5010673;28;20030;-63
2022/12/11 01:57:07;;;;;;;30.73;18.75;;;;;;;3.11;100.00;101159.19;5012004;28;20471;-60
2022/12/11 01:59:36;;;;;;;29.83;18.55;;;;;;;3.14;100.00;101160.91;4994258;28;20064;-63
2022/12/11 02:02:05;;;;;;;35.28;18.38;;;;;;;3.06;100.00;101155.69;5010688;28;20488;-62
2022/12/11 02:04:32;;;;;;;29.90;18.45;;;;;;;3.07;100.00;101153.94;5011692;28;20041;-62
2022/12/11 02:06:57;;;;;;;31.27;18.60;;;;;;;3.05;100.00;101151.34;5030024;28;20118;-62
2022/12/11 02:09:26;;;;;;;28.83;17.80;;;;;;;3.00;100.00;101160.88;5030483;28;20132;-63
2022/12/11 02:12:02;;;;;;;25.27;17.33;;;;;;;3.00;100.00;101164.34;5030016;28;20037;-61
2022/12/11 02:14:35;;;;;;;30.65;18.33;;;;;;;3.03;100.00;101160.88;5013088;28;20596;-62
2022/12/11 02:17:08;;;;;;;26.92;16.98;;;;;;;3.05;100.00;101158.28;5030040;28;20026;-61
2022/12/11 02:19:44;;;;;;;28.90;17.52;;;;;;;2.95;100.00;101168.66;5031557;28;20037;-63
2022/12/11 02:22:15;;;;;;;27.20;16.38;;;;;;;2.92;100.00;101171.25;5031414;28;20029;-59
2022/12/11 02:24:51;;;;;;;31.88;16.80;;;;;;;3.00;100.00;101176.47;5028942;28;20164;-63
2022/12/11 02:27:44;;;;;;;31.52;17.30;;;;;;;2.97;100.00;101161.72;5031330;28;20032;-62
2022/12/11 02:30:12;;;;;;;28.77;16.08;;;;;;;3.01;100.00;101165.22;5026277;28;20116;-61
2022/12/11 02:32:57;;;;;;;30.60;17.52;;;;;;;2.94;100.00;101159.13;5028438;28;20392;-62
2022/12/11 02:35:34;;;;;;;30.13;16.67;;;;;;;2.92;100.00;101158.22;5029622;28;20036;-63
2022/12/11 02:38:03;;;;;;;28.00;16.33;;;;;;;2.84;100.00;101160.84;5028241;28;20029;-62
2022/12/11 02:40:31;;;;;;;27.42;15.75;;;;;;;2.78;100.00;101153.00;5030355;28;20036;-62
2022/12/11 02:42:59;;;;;;;31.27;16.65;;;;;;;2.82;100.00;101156.47;5029472;28;20022;-58
2022/12/11 02:45:25;;;;;;;28.63;17.20;;;;;;;2.77;100.00;101153.88;5029364;28;20029;-58
2022/12/11 02:47:51;;;;;;;30.77;16.55;;;;;;;2.80;100.00;101153.84;5029074;28;20426;-60
2022/12/11 02:50:19;;;;;;;29.33;16.38;;;;;;;2.86;100.00;101153.03;5028292;28;20041;-62
2022/12/11 02:52:45;;;;;;;28.60;16.65;;;;;;;2.85;100.00;101146.06;5028497;28;20034;-60
2022/12/11 02:55:11;;;;;;;30.95;16.60;;;;;;;2.85;100.00;101140.84;5029144;28;20030;-62
2022/12/11 02:57:48;;;;;;;35.17;17.52;;;;;;;2.85;100.00;101135.66;5029012;28;20037;-62
2022/12/11 03:00:15;;;;;;;28.70;16.35;;;;;;;2.86;100.00;101129.59;5028755;28;20025;-59
2022/12/11 03:02:41;;;;;;;30.77;17.45;;;;;;;2.89;100.00;101130.47;5029181;28;20045;-60
2022/12/11 03:05:07;;;;;;;30.05;16.90;;;;;;;2.82;100.00;101127.84;5030386;28;20036;-60
2022/12/11 03:07:34;;;;;;;28.52;16.10;;;;;;;2.88;100.00;101126.13;5030108;28;20022;-62
2022/12/11 03:09:59;;;;;;;33.00;17.33;;;;;;;2.91;100.00;101125.25;5028903;28;20076;-62
2022/12/11 03:12:30;;;;;;;31.90;17.38;;;;;;;2.84;100.00;101118.31;5029929;28;20057;-60
2022/12/11 03:15:01;;;;;;;31.23;17.23;;;;;;;2.88;100.00;101122.66;5028662;28;20061;-61
2022/12/11 03:17:34;;;;;;;33.42;17.48;;;;;;;2.84;100.00;101119.19;5037231;28;20095;-61
2022/12/11 03:20:30;;;;;;;32.08;16.77;;;;;;;2.84;100.00;101120.91;5048614;28;20048;-60
2022/12/11 03:23:10;;;;;;;32.65;16.98;;;;;;;2.77;100.00;101120.88;5049185;28;20055;-63
2022/12/11 03:25:43;;;;;;;30.10;17.63;;;;;;;2.84;100.00;101113.09;5049772;28;20104;-61
2022/12/11 03:28:14;;;;;;;30.63;16.92;;;;;;;2.95;100.00;101106.19;5048039;28;20020;-61
2022/12/11 03:30:39;;;;;;;34.78;17.33;;;;;;;2.97;100.00;101111.38;5048506;28;20047;-60
2022/12/11 03:33:12;;;;;;;30.15;17.25;;;;;;;2.96;100.00;101113.16;5047936;28;20080;-63
2022/12/11 03:35:41;;;;;;;35.28;16.75;;;;;;;3.00;100.00;101120.09;5048336;28;20051;-62
2022/12/11 03:38:29;;;;;;;28.85;16.30;;;;;;;3.02;100.00;101114.88;5047347;28;20031;-63
2022/12/11 03:40:57;;;;;;;33.33;16.80;;;;;;;2.95;100.00;101116.59;5047656;28;20514;-61
2022/12/11 03:43:24;;;;;;;28.23;15.82;;;;;;;2.96;100.00;101118.34;5047395;28;20560;-61
2022/12/11 03:45:50;;;;;;;26.80;16.77;;;;;;;2.87;100.00;101119.19;5049087;28;20112;-61
2022/12/11 03:48:16;;;;;;;28.58;17.58;;;;;;;2.86;100.00;101116.59;5047360;28;20029;-61
2022/12/11 03:50:42;;;;;;;32.10;17.90;;;;;;;2.95;100.00;101115.75;5047783;28;20033;-62
2022/12/11 03:53:09;;;;;;;32.42;17.38;;;;;;;2.96;100.00;101117.47;5048349;28;20399;-62
2022/12/11 03:55:35;;;;;;;32.83;17.65;;;;;;;2.94;100.00;101112.25;5048510;28;20036;-60
2022/12/11 03:58:00;;;;;;;34.40;18.23;;;;;;;2.93;100.00;101114.84;5022643;28;20044;-61
2022/12/11 04:00:26;;;;;;;32.55;18.20;;;;;;;2.98;100.00;101120.97;5008268;28;20022;-64
2022/12/11 04:05:35;;;;;;;29.60;18.02;;;;;;;2.99;100.00;101113.16;5025324;28;20060;-61
2022/12/11 04:08:01;;;;;;;35.30;18.45;;;;;;;2.94;100.00;101113.97;5049070;28;20726;-61
2022/12/11 04:10:26;;;;;;;32.63;18.75;;;;;;;2.96;100.00;101110.53;5047319;28;20153;-61
2022/12/11 04:12:51;;;;;;;34.38;18.52;;;;;;;2.99;100.00;101107.06;5048922;28;20032;-62
2022/12/11 04:15:17;;;;;;;31.42;17.40;;;;;;;3.05;100.00;101106.19;5048839;28;20040;-61
2022/12/11 04:26:03;;;;;;;31.08;17.20;;;;;;;2.95;100.00;101087.94;5048631;28;20059;-61
2022/12/11 04:28:29;;;;;;;31.88;16.88;;;;;;;2.95;100.00;101082.75;5044424;28;20377;-61
2022/12/11 04:30:54;;;;;;;31.67;16.88;;;;;;;2.98;100.00;101077.53;5028539;28;20468;-54
2022/12/11 04:33:19;;;;;;;35.17;17.67;;;;;;;2.95;100.00;101084.50;5027120;28;20495;-61
2022/12/11 04:35:45;;;;;;;35.40;17.75;;;;;;;2.99;100.00;101081.91;5027559;28;20029;-62
2022/12/11 04:38:10;;;;;;;30.08;15.60;;;;;;;2.94;100.00;101083.63;5028786;28;20073;-61
2022/12/11 04:40:36;;;;;;;29.13;16.15;;;;;;;2.98;100.00;101090.56;5027862;28;20029;-61
2022/12/11 04:43:01;;;;;;;27.05;16.65;;;;;;;3.01;100.00;101095.78;5028485;28;20021;-60
2022/12/11 04:45:26;;;;;;;32.33;17.83;;;;;;;2.97;100.00;101088.84;5028064;28;20484;-61
2022/12/11 04:47:51;;;;;;;28.13;15.95;;;;;;;2.98;100.00;101100.97;5027832;28;20487;-61
2022/12/11 04:50:17;;;;;;;26.45;16.02;;;;;;;2.97;100.00;101094.03;5028379;28;20169;-63
2022/12/11 04:52:43;;;;;;;27.85;15.98;;;;;;;2.94;100.00;101098.38;5028357;28;20029;-61
2022/12/11 04:55:09;;;;;;;28.38;15.98;;;;;;;2.97;100.00;101095.75;5028072;28;20029;-63
2022/12/11 04:57:34;;;;;;;26.33;15.00;;;;;;;2.86;100.00;101100.97;5026846;28;20037;-62
2022/12/11 05:00:00;;;;;;;25.52;15.35;;;;;;;2.94;100.00;101100.97;5028380;28;20037;-62
2022/12/11 05:02:26;;;;;;;23.92;14.32;;;;;;;2.91;100.00;101101.84;5026046;28;20080;-62
2022/12/11 05:04:51;;;;;;;22.90;14.38;;;;;;;2.83;100.00;101096.59;5027795;28;20069;-61
2022/12/11 05:07:17;;;;;;;24.05;14.50;;;;;;;2.88;100.00;101100.09;5036353;28;20101;-61
2022/12/11 05:09:42;;;;;;;24.05;13.98;;;;;;;2.98;100.00;101098.38;5048000;28;20432;-62
2022/12/11 05:12:08;;;;;;;26.90;14.27;;;;;;;2.94;100.00;101098.38;5047682;28;20029;-61
2022/12/11 05:14:33;;;;;;;24.23;13.82;;;;;;;2.87;100.00;101092.28;5042141;28;20124;-60
2022/12/11 05:16:59;;;;;;;21.85;12.85;;;;;;;2.93;100.00;101097.50;5024150;28;20411;-62
2022/12/11 05:19:24;;;;;;;20.65;12.75;;;;;;;2.93;100.00;101092.31;5027881;28;20033;-61
2022/12/11 05:21:50;;;;;;;24.15;12.50;;;;;;;2.90;100.00;101092.31;5027904;28;20037;-58
2022/12/11 05:24:15;;;;;;;20.45;12.45;;;;;;;2.91;100.00;101096.63;5027029;28;20119;-57
2022/12/11 05:26:41;;;;;;;19.23;11.90;;;;;;;2.89;100.00;101094.03;5027919;28;20032;-62
2022/12/11 05:29:06;;;;;;;19.90;11.80;;;;;;;2.87;100.00;101090.56;5028904;28;20364;-62
2022/12/11 05:31:31;;;;;;;21.10;12.20;;;;;;;2.91;100.00;101094.03;5044412;28;20033;-64
2022/12/11 05:33:57;;;;;;;15.98;10.27;;;;;;;2.86;100.00;101085.34;5030546;28;20037;-60
2022/12/11 05:36:25;;;;;;;14.77;9.60;;;;;;;2.84;100.00;101084.47;5027003;28;20013;-61
2022/12/11 05:38:51;;;;;;;18.48;10.73;;;;;;;2.85;100.00;101081.88;5027868;28;20068;-61
2022/12/11 05:41:18;;;;;;;16.40;10.10;;;;;;;2.82;100.00;101078.38;5027696;28;20064;-58
2022/12/11 05:43:44;;;;;;;15.75;10.30;;;;;;;2.78;100.00;101075.81;5027113;28;20040;-60
2022/12/11 05:46:22;;;;;;;17.35;10.73;;;;;;;2.78;100.00;101072.31;5025675;28;20029;-64
2022/12/11 05:48:49;;;;;;;16.80;10.00;;;;;;;2.76;100.00;101074.03;5026145;28;20403;-61
2022/12/11 05:51:15;;;;;;;18.00;10.95;;;;;;;2.75;100.00;101081.00;5027369;28;20075;-62
2022/12/11 05:53:41;;;;;;;17.23;10.27;;;;;;;2.80;100.00;101072.31;5030709;28;20482;-61
2022/12/11 05:56:10;;;;;;;19.98;11.00;;;;;;;2.67;100.00;101069.69;5031229;28;20078;-61
2022/12/11 05:58:35;;;;;;;19.58;10.60;;;;;;;2.63;100.00;101070.53;5030218;28;20090;-61
2022/12/11 06:01:01;;;;;;;21.73;11.85;;;;;;;2.62;100.00;101069.66;5030486;28;20116;-60
2022/12/11 06:03:27;;;;;;;17.83;11.07;;;;;;;2.72;100.00;101073.19;5029333;28;20068;-61
2022/12/11 06:05:52;;;;;;;21.45;12.70;;;;;;;2.67;100.00;101072.28;5030225;28;20460;-61
2022/12/11 06:08:18;;;;;;;22.15;12.40;;;;;;;2.64;100.00;101064.47;5031105;28;20475;-62
2022/12/11 06:10:48;;;;;;;20.15;11.93;;;;;;;2.67;100.00;101069.69;5030592;28;20550;-62
2022/12/11 06:13:13;;;;;;;22.42;13.45;;;;;;;2.59;100.00;101072.25;5022841;28;20540;-62
2022/12/11 06:15:39;;;;;;;25.80;13.68;;;;;;;2.58;100.00;101074.84;5023178;28;20156;-60
2022/12/11 06:18:04;;;;;;;24.13;13.55;;;;;;;2.50;100.00;101078.28;5040038;28;20112;-61
2022/12/11 06:20:33;;;;;;;24.42;13.40;;;;;;;2.52;100.00;101076.59;5034418;28;20036;-63
2022/12/11 06:23:00;;;;;;;26.35;15.00;;;;;;;2.62;100.00;101087.03;5029992;28;20075;-62
2022/12/11 06:25:26;;;;;;;26.10;14.77;;;;;;;2.62;100.00;101079.22;5028605;28;20056;-61
2022/12/11 06:27:51;;;;;;;28.10;15.63;;;;;;;2.51;100.00;101079.19;5039210;28;20095;-62
2022/12/11 06:30:17;;;;;;;25.35;15.13;;;;;;;2.49;100.00;101081.78;5050333;28;20462;-61
2022/12/11 06:32:42;;;;;;;26.77;14.82;;;;;;;2.47;100.00;101093.03;5047704;28;20032;-59
2022/12/11 06:35:08;;;;;;;30.63;15.27;;;;;;;2.53;100.00;101091.31;5048677;28;20059;-62
2022/12/11 06:37:35;;;;;;;28.52;15.57;;;;;;;2.55;100.00;101091.31;5049089;28;20040;-63
2022/12/11 06:40:00;;;;;;;30.73;16.80;;;;;;;2.62;100.00;101087.88;5050255;28;20029;-63
2022/12/11 06:42:25;;;;;;;31.33;16.02;;;;;;;2.62;100.00;101093.06;5050139;28;20036;-61
2022/12/11 06:44:51;;;;;;;31.73;16.63;;;;;;;2.56;100.00;101087.84;5050161;28;20013;-61
2022/12/11 06:47:16;;;;;;;30.77;16.60;;;;;;;2.61;100.00;101085.28;5049740;28;20029;-64
2022/12/11 06:49:42;;;;;;;30.88;17.17;;;;;;;2.63;100.00;101083.56;5040683;28;20036;-61
2022/12/11 06:52:07;;;;;;;33.22;16.63;;;;;;;2.62;100.00;101085.28;5045776;28;20052;-63
2022/12/11 06:54:32;;;;;;;31.35;16.17;;;;;;;2.57;100.00;101080.94;5030056;28;20048;-60
2022/12/11 06:56:58;;;;;;;30.88;16.70;;;;;;;2.59;100.00;101087.00;5029827;28;20036;-61
2022/12/11 06:59:23;;;;;;;28.52;17.00;;;;;;;2.55;100.00;101085.25;5029675;28;20119;-62
2022/12/11 07:01:48;;;;;;;33.15;16.63;;;;;;;2.55;100.00;101077.44;5029324;28;20052;-61
2022/12/11 07:04:14;;;;;;;31.35;16.38;;;;;;;2.65;100.00;101076.63;5028098;28;20060;-60
2022/12/11 07:06:39;;;;;;;36.20;16.92;;;;;;;2.55;100.00;101080.03;5018050;28;20030;-62
2022/12/11 07:09:05;;;;;;;31.02;16.92;;;;;;;2.62;100.00;101074.88;5028139;28;20480;-59
2022/12/11 07:11:31;;;;;;;32.13;15.80;;;;;;;2.58;100.00;101080.06;5029100;28;20017;-59
2022/12/11 07:13:59;;;;;;;33.63;16.50;;;;;;;2.59;100.00;101081.81;5029853;28;20746;-62
2022/12/11 07:16:25;;;;;;;29.05;15.73;;;;;;;2.57;100.00;101075.72;5028986;28;20356;-62
2022/12/11 07:18:50;;;;;;;30.85;16.70;;;;;;;2.50;100.00;101078.28;5029253;28;20026;-61
2022/12/11 07:21:17;;;;;;;32.53;16.90;;;;;;;2.57;100.00;101083.53;5030329;28;20017;-62
2022/12/11 07:23:42;;;;;;;29.90;16.65;;;;;;;2.52;100.00;101078.31;5029530;28;20518;-58
2022/12/11 07:26:11;;;;;;;30.33;15.70;;;;;;;2.54;100.00;101081.78;5029484;28;20069;-62
2022/12/11 07:28:37;;;;;;;28.58;16.20;;;;;;;2.44;100.00;101083.47;5026533;28;20017;-62
2022/12/11 07:31:13;;;;;;;30.08;15.85;;;;;;;2.49;100.00;101081.78;5028722;28;20059;-56
2022/12/11 07:33:38;;;;;;;28.35;15.82;;;;;;;2.52;100.00;101084.38;5028458;28;20076;-65
2022/12/11 07:36:06;;;;;;;28.63;15.80;;;;;;;2.53;100.00;101080.06;5029730;28;20435;-58
2022/12/11 07:38:31;;;;;;;32.13;15.70;;;;;;;2.50;100.00;101090.47;5029385;28;20030;-58
2022/12/11 07:41:00;;;;;;;26.77;15.02;;;;;;;2.58;100.00;101095.66;5028593;28;20075;-63
2022/12/11 07:43:26;;;;;;;27.50;15.50;;;;;;;2.56;100.00;101092.22;5028036;28;20097;-61
2022/12/11 07:45:51;;;;;;;28.90;15.13;;;;;;;2.56;100.00;101097.41;5028000;28;20112;-62
2022/12/11 07:48:17;;;;;;;26.38;14.48;;;;;;;2.57;100.00;101099.13;5028552;28;20038;-62
2022/12/11 07:50:42;;;;;;;30.13;15.57;;;;;;;2.51;100.00;101095.66;5028214;28;20025;-62
2022/12/11 07:53:07;;;;;;;26.92;15.50;;;;;;;2.58;100.00;101104.34;5027786;28;20041;-63
2022/12/11 07:55:33;;;;;;;28.45;15.07;;;;;;;2.55;100.00;101106.94;5028483;28;20431;-59
2022/12/11 07:57:58;;;;;;;25.25;14.77;;;;;;;2.52;100.00;101105.19;5026732;28;20049;-63
2022/12/11 08:00:23;;;;;;;28.23;14.50;;;;;;;2.58;100.00;101113.88;5025375;28;20116;-62
2022/12/11 08:02:49;;;;;;;25.00;14.20;;;;;;;2.56;100.00;101107.81;5025508;28;20099;-62
2022/12/11 08:05:15;;;;;;;27.33;15.63;;;;;;;2.56;100.00;101103.47;5028931;28;20073;-62
2022/12/11 08:07:41;;;;;;;32.88;16.73;;;;;;;2.64;100.00;101111.31;5023207;28;20061;-62
2022/12/11 08:10:06;;;;;;;39.42;17.48;;;;;;;2.59;100.00;101107.81;5025842;28;20052;-63
2022/12/11 08:12:32;;;;;;;31.85;17.88;;;;;;;2.55;100.00;101111.25;5026859;28;20114;-61
2022/12/11 08:14:57;;;;;;;35.22;18.55;;;;;;;2.68;100.00;101107.00;5028148;28;20413;-65
2022/12/11 08:17:22;;;;;;;34.15;19.05;;;;;;;2.69;100.00;101108.72;5027331;28;20121;-63
2022/12/11 08:19:48;;;;;;;33.28;18.00;;;;;;;2.66;100.00;101109.59;5028431;28;20029;-65
2022/12/11 08:22:13;;;;;;;34.25;19.23;;;;;;;2.69;100.00;101109.59;5028722;28;20553;-61
2022/12/11 08:24:39;;;;;;;34.28;17.92;;;;;;;2.71;100.00;101107.84;5022071;28;20050;-61
2022/12/11 08:27:04;;;;;;;30.25;18.42;;;;;;;2.62;100.00;101108.69;5027635;28;20100;-59
2022/12/11 08:29:30;;;;;;;34.92;18.23;;;;;;;2.70;100.00;101106.13;5027907;28;20415;-60
2022/12/11 08:31:55;;;;;;;33.05;17.83;;;;;;;2.73;100.00;101106.13;5027442;28;20029;-61
2022/12/11 08:34:21;;;;;;;28.35;16.98;;;;;;;2.76;100.00;101110.47;5027414;28;20069;-63
2022/12/11 08:36:46;;;;;;;36.95;18.35;;;;;;;2.80;100.00;101106.16;5028495;28;20455;-61
2022/12/11 08:39:12;;;;;;;31.73;18.13;;;;;;;2.76;100.00;101113.94;5028217;28;20021;-61
2022/12/11 08:41:37;;;;;;;30.05;17.95;;;;;;;2.79;100.00;101105.28;5027329;28;20099;-62
2022/12/11 08:44:03;;;;;;;31.40;17.65;;;;;;;2.92;100.00;101106.16;5028319;28;20022;-61
2022/12/11 08:46:30;;;;;;;32.20;17.80;;;;;;;2.95;100.00;101105.31;5027127;28;20108;-61
2022/12/11 08:48:56;;;;;;;31.33;16.33;;;;;;;2.94;100.00;101107.06;5027423;28;20021;-62
2022/12/11 08:51:24;;;;;;;31.38;17.48;;;;;;;2.98;100.00;101103.59;5027965;28;20025;-61
2022/12/11 08:53:50;;;;;;;30.85;16.60;;;;;;;3.05;100.00;101101.88;5028200;28;20484;-58
2022/12/11 08:56:17;;;;;;;30.65;17.65;;;;;;;3.01;100.00;101101.00;5028293;28;20013;-62
2022/12/11 08:58:43;;;;;;;31.77;17.55;;;;;;;2.96;100.00;101105.34;5027599;28;20025;-60
2022/12/11 09:01:13;;;;;;;32.28;17.52;;;;;;;3.09;100.00;101105.34;5027537;28;20028;-61
2022/12/11 09:03:40;;;;;;;32.42;17.92;;;;;;;3.08;100.00;101116.63;5031207;28;20041;-60
2022/12/11 09:06:07;;;;;;;32.38;18.02;;;;;;;3.03;100.00;101109.69;5029068;28;20482;-62
2022/12/11 09:08:33;;;;;;;32.83;17.55;;;;;;;3.16;100.00;101104.47;5028043;28;20029;-61
2022/12/11 09:11:04;;;;;;;29.90;17.33;;;;;;;3.16;100.00;101110.56;5028016;28;20387;-61
2022/12/11 09:13:29;;;;;;;36.15;18.08;;;;;;;3.21;100.00;101113.19;5026037;28;20477;-61
2022/12/11 09:18:30;;;;;;;35.80;19.85;;;;;;;3.20;100.00;101097.53;3489178;23;20049;-63
2022/12/11 09:21:02;;;;;;;37.15;19.42;;;;;;;3.32;100.00;101101.91;5012166;28;20450;-62
2022/12/11 09:23:28;;;;;;;39.00;19.52;;;;;;;3.37;100.00;101101.03;5009964;28;20022;-61
2022/12/11 09:25:53;;;;;;;39.17;20.55;;;;;;;3.31;100.00;101103.63;5007065;28;20036;-64
2022/12/11 09:28:19;;;;;;;37.40;20.48;;;;;;;3.26;100.00;101098.44;5017723;28;20116;-59
2022/12/11 09:30:44;;;;;;;34.88;19.48;;;;;;;3.38;100.00;101099.28;5019241;28;20069;-60
2022/12/11 09:33:09;;;;;;;33.88;20.08;;;;;;;3.39;100.00;101099.28;5019149;28;20029;-63
2022/12/11 09:35:36;;;;;;;34.72;19.65;;;;;;;3.37;100.00;101097.56;5019614;28;20018;-62
2022/12/11 09:38:01;;;;;;;32.92;19.13;;;;;;;3.44;100.00;101101.91;5019093;28;20021;-61
2022/12/11 09:40:27;;;;;;;34.28;19.08;;;;;;;3.36;100.00;101099.28;5028650;28;20029;-61
2022/12/11 09:42:59;;;;;;;32.53;19.15;;;;;;;3.33;100.00;101101.00;5032648;28;20022;-58
2022/12/11 09:45:24;;;;;;;33.40;18.10;;;;;;;3.46;100.00;101092.34;5024986;28;20068;-59
2022/12/11 09:47:51;;;;;;;33.17;19.65;;;;;;;3.49;100.00;101100.16;5021540;28;20144;-61
2022/12/11 09:50:24;;;;;;;31.92;18.98;;;;;;;3.52;100.00;101089.72;5030340;28;20025;-62
2022/12/11 09:52:54;;;;;;;30.13;17.23;;;;;;;3.59;100.00;101092.34;5042685;28;20112;-62
2022/12/11 09:55:24;;;;;;;38.00;19.25;;;;;;;3.58;100.00;101094.06;5044291;28;20025;-59
2022/12/11 09:58:14;;;;;;;34.53;17.73;;;;;;;3.55;100.00;101091.47;5029724;28;20033;-62
2022/12/11 10:01:00;;;;;;;31.63;17.13;;;;;;;3.70;100.00;101087.97;5030225;28;20037;-62
2022/12/11 10:04:01;;;;;;;32.25;17.73;;;;;;;3.63;100.00;101094.06;5014877;28;20026;-61
2022/12/11 10:06:29;;;;;;;31.83;17.83;;;;;;;3.81;100.00;101084.47;5020903;28;20041;-60
2022/12/11 10:09:19;;;;;;;34.67;18.77;;;;;;;3.67;100.00;101083.66;5029393;28;20383;-60
2022/12/11 10:12:12;;;;;;;34.20;18.25;;;;;;;3.75;100.00;101086.25;5029396;28;20021;-60
2022/12/11 10:14:56;;;;;;;32.28;18.40;;;;;;;3.72;100.00;101087.97;5028820;28;20040;-60
2022/12/11 10:17:28;;;;;;;36.83;19.80;;;;;;;3.66;100.00;101084.53;5017322;28;20037;-61
2022/12/11 10:19:55;;;;;;;35.80;19.55;;;;;;;3.83;100.00;101090.56;5027448;28;20129;-61
2022/12/11 10:22:23;;;;;;;32.00;18.60;;;;;;;3.83;100.00;101086.25;5027526;28;20022;-63
2022/12/11 10:24:55;;;;;;;39.70;19.08;;;;;;;3.83;100.00;101090.56;5028876;28;20494;-60
2022/12/11 10:27:23;;;;;;;38.63;20.65;;;;;;;3.98;100.00;101085.34;5016541;28;20437;-61
2022/12/11 10:29:56;;;;;;;37.78;20.80;;;;;;;3.88;100.00;101078.38;5029460;28;20017;-61
2022/12/11 10:32:23;;;;;;;38.03;19.30;;;;;;;3.89;100.00;101077.53;5029383;28;20030;-62
2022/12/11 10:34:56;;;;;;;42.60;21.48;;;;;;;3.88;100.00;101073.16;5023005;28;20030;-62
2022/12/11 10:37:22;;;;;;;43.97;22.00;;;;;;;3.70;100.00;101068.88;5027443;28;20026;-62
2022/12/11 10:39:47;;;;;;;43.65;22.35;;;;;;;3.69;100.00;101064.53;5028930;28;20033;-60
2022/12/11 10:42:18;;;;;;;44.28;21.50;;;;;;;3.89;100.00;101065.34;5026319;28;20018;-59
2022/12/11 10:44:59;;;;;;;44.38;21.40;;;;;;;3.90;100.00;101069.72;5024016;28;20087;-61
2022/12/11 10:47:25;;;;;;;39.13;21.15;;;;;;;3.86;100.00;101064.50;5029003;28;20087;-61
2022/12/11 10:49:54;;;;;;;42.22;21.38;;;;;;;3.96;100.00;101060.13;5029813;28;20033;-62
2022/12/11 10:52:30;;;;;;;45.38;21.90;;;;;;;4.03;100.00;101060.09;5029034;28;20033;-61
2022/12/11 10:55:03;;;;;;;38.92;21.38;;;;;;;4.06;100.00;101053.16;5029925;28;20026;-63
2022/12/11 10:57:36;;;;;;;35.92;21.50;;;;;;;4.18;100.00;101050.47;5039018;28;20044;-61
2022/12/11 11:00:05;;;;;;;36.20;20.45;;;;;;;4.15;100.00;101045.28;5028206;28;20030;-61
2022/12/11 11:02:34;;;;;;;41.10;21.83;;;;;;;4.20;100.00;101046.13;5028812;28;20426;-61
2022/12/11 11:05:11;;;;;;;37.53;20.63;;;;;;;4.26;100.00;101050.47;5029255;28;20029;-56
2022/12/11 11:07:36;;;;;;;38.50;20.13;;;;;;;4.29;100.00;101051.31;5030049;28;20029;-62
2022/12/11 11:10:11;;;;;;;39.90;20.75;;;;;;;4.27;100.00;101047.84;5028471;28;20117;-62
2022/12/11 11:12:42;;;;;;;41.20;20.63;;;;;;;4.20;100.00;101053.97;5029421;28;20478;-64
2022/12/11 11:15:19;;;;;;;35.35;18.83;;;;;;;4.37;100.00;101040.00;5028910;28;20033;-61
2022/12/11 11:17:50;;;;;;;36.85;18.50;;;;;;;4.27;100.00;101045.22;5026672;28;20057;-62
2022/12/11 11:20:23;;;;;;;35.63;20.30;;;;;;;4.28;100.00;101041.75;5028005;28;20137;-58
2022/12/11 11:22:50;;;;;;;33.97;17.95;;;;;;;4.29;100.00;101046.09;5026868;28;20033;-60
2022/12/11 11:25:19;;;;;;;37.00;18.90;;;;;;;4.37;100.00;101040.00;5026920;28;20053;-61
2022/12/11 11:27:49;;;;;;;34.22;18.38;;;;;;;4.42;100.00;101048.63;5027235;28;20052;-61